createdAt,value
2022-11-29T00:00:02.759Z,61.00
2022-11-29T00:03:05.841Z,57.90
2022-11-29T00:05:44.128Z,50.20
2022-11-29T00:08:13.959Z,43.30
2022-11-29T00:10:42.379Z,42.30
2022-11-29T00:13:10.968Z,42.50
2022-11-29T00:15:40.300Z,44.30
2022-11-29T00:18:09.119Z,47.90
2022-11-29T00:20:40.066Z,46.30
2022-11-29T00:23:08.880Z,46.80
2022-11-29T00:25:38.884Z,47.70
2022-11-29T00:28:07.219Z,48.30
2022-11-29T00:30:36.950Z,48.50
2022-11-29T00:33:09.602Z,47.40
2022-11-29T00:35:39.658Z,48.60
2022-11-29T00:38:13.647Z,47.60
2022-11-29T00:40:51.080Z,47.70
2022-11-29T00:43:19.387Z,48.60
2022-11-29T00:46:03.822Z,48.60
2022-11-29T00:48:37.437Z,45.90
2022-11-29T00:51:07.880Z,47.30
2022-11-29T00:53:40.283Z,49.70
2022-11-29T00:56:08.963Z,48.90
2022-11-29T00:58:46.816Z,54.20
2022-11-29T01:01:22.064Z,54.40
2022-11-29T01:03:50.654Z,53.80
2022-11-29T01:06:28.091Z,47.90
2022-11-29T01:08:56.770Z,41.80
2022-11-29T01:11:28.574Z,37.90
2022-11-29T01:14:01.025Z,39.60
2022-11-29T01:16:31.960Z,40.80
2022-11-29T01:19:00.791Z,41.00
2022-11-29T01:21:29.347Z,42.00
2022-11-29T01:23:57.648Z,40.40
2022-11-29T01:26:29.344Z,37.30
2022-11-29T01:28:59.422Z,37.60
2022-11-29T01:31:31.690Z,36.70
2022-11-29T01:34:02.165Z,39.10
2022-11-29T01:36:31.846Z,43.20
2022-11-29T01:39:02.191Z,40.00
2022-11-29T01:41:33.715Z,32.80
2022-11-29T01:44:02.001Z,32.90
2022-11-29T01:46:39.491Z,33.50
2022-11-29T01:49:16.880Z,34.90
2022-11-29T01:51:51.481Z,32.50
2022-11-29T01:54:21.348Z,23.70
2022-11-29T01:56:52.292Z,32.40
2022-11-29T01:59:23.863Z,35.30
2022-11-29T02:01:53.097Z,34.20
2022-11-29T02:04:21.544Z,32.60
2022-11-29T02:06:49.786Z,33.50
2022-11-29T02:09:23.639Z,32.80
2022-11-29T02:12:13.543Z,34.10
2022-11-29T02:14:52.904Z,31.60
2022-11-29T02:17:39.012Z,32.90
2022-11-29T02:20:23.038Z,33.70
2022-11-29T02:22:51.241Z,32.30
2022-11-29T02:25:33.476Z,32.60
2022-11-29T02:28:30.451Z,33.30
2022-11-29T02:31:17.241Z,31.20
2022-11-29T02:34:11.156Z,30.20
2022-11-29T02:36:42.325Z,30.20
2022-11-29T02:39:35.457Z,30.90
2022-11-29T02:42:55.688Z,31.00
2022-11-29T02:45:42.717Z,34.30
2022-11-29T02:48:36.245Z,32.30
2022-11-29T02:51:23.358Z,32.30
2022-11-29T02:53:55.802Z,34.00
2022-11-29T02:56:56.245Z,32.60
2022-11-29T02:59:33.541Z,31.70
2022-11-29T03:02:25.253Z,31.70
2022-11-29T03:05:19.009Z,36.00
2022-11-29T03:08:15.583Z,95.70
2022-11-29T03:10:58.943Z,96.50
2022-11-29T03:14:05.962Z,66.50
2022-11-29T03:16:38.336Z,66.90
2022-11-29T03:19:47.916Z,51.90
2022-11-29T03:22:26.952Z,41.90
2022-11-29T03:24:59.243Z,40.90
2022-11-29T03:27:48.118Z,67.10
2022-11-29T03:30:19.312Z,59.40
2022-11-29T03:33:06.444Z,39.00
2022-11-29T03:35:41.416Z,46.30
2022-11-29T03:38:15.488Z,44.00
2022-11-29T03:41:05.214Z,69.80
2022-11-29T03:43:41.156Z,96.30
2022-11-29T03:46:21.762Z,85.60
2022-11-29T03:48:57.738Z,86.80
2022-11-29T03:51:54.846Z,71.00
2022-11-29T03:54:42.388Z,69.30
2022-11-29T03:57:16.424Z,73.10
2022-11-29T03:59:52.619Z,54.40
2022-11-29T04:03:00.964Z,72.40
2022-11-29T04:05:57.076Z,74.80
2022-11-29T04:08:40.468Z,66.90
2022-11-29T04:11:32.988Z,73.50
2022-11-29T04:14:20.483Z,69.50
2022-11-29T04:17:01.256Z,65.40
2022-11-29T04:19:42.380Z,72.40
2022-11-29T04:22:31.337Z,67.90
2022-11-29T04:25:34.382Z,58.50
2022-11-29T04:28:38.024Z,51.00
2022-11-29T04:31:18.581Z,48.30
2022-11-29T04:33:53.105Z,34.00
2022-11-29T04:36:49.292Z,34.60
2022-11-29T04:39:42.763Z,29.90
2022-11-29T04:42:25.947Z,30.70
2022-11-29T04:45:12.897Z,32.50
2022-11-29T04:48:05.392Z,35.70
2022-11-29T04:50:37.523Z,37.60
2022-11-29T04:53:05.862Z,36.00
2022-11-29T04:55:50.149Z,36.30
2022-11-29T04:58:18.389Z,33.70
2022-11-29T05:01:14.758Z,35.20
2022-11-29T05:04:01.209Z,37.20
2022-11-29T05:06:39.598Z,33.60
2022-11-29T05:09:19.260Z,40.30
2022-11-29T05:12:06.505Z,45.80
2022-11-29T05:15:02.575Z,48.10
2022-11-29T05:20:20.887Z,55.20
2022-11-29T05:22:52.225Z,51.50
2022-11-29T05:25:35.853Z,54.10
2022-11-29T05:28:13.733Z,50.40
2022-11-29T05:31:20.703Z,49.40
2022-11-29T05:34:36.779Z,50.80
2022-11-29T05:37:26.151Z,54.00
2022-11-29T05:40:18.607Z,52.70
2022-11-29T05:42:49.638Z,54.30
2022-11-29T05:45:30.746Z,47.60
2022-11-29T05:48:20.995Z,47.80
2022-11-29T05:51:16.533Z,49.30
2022-11-29T05:53:44.847Z,49.90
2022-11-29T05:56:25.556Z,51.50
2022-11-29T05:59:08.571Z,53.00
2022-11-29T06:01:45.882Z,54.60
2022-11-29T06:04:21.968Z,52.50
2022-11-29T06:07:03.891Z,54.80
2022-11-29T06:09:35.676Z,54.50
2022-11-29T06:12:06.865Z,54.70
2022-11-29T06:15:13.930Z,54.20
2022-11-29T06:17:55.260Z,53.10
2022-11-29T06:20:42.882Z,56.50
2022-11-29T06:23:30.209Z,69.00
2022-11-29T06:26:17.289Z,74.90
2022-11-29T06:29:04.182Z,73.60
2022-11-29T06:31:39.895Z,68.50
2022-11-29T06:34:30.515Z,55.30
2022-11-29T06:37:20.154Z,51.10
2022-11-29T06:39:48.653Z,45.10
2022-11-29T06:42:17.062Z,49.90
2022-11-29T06:44:46.098Z,51.30
2022-11-29T06:47:37.762Z,56.90
2022-11-29T06:50:27.591Z,56.70
2022-11-29T06:53:01.670Z,49.50
2022-11-29T06:55:59.280Z,49.50
2022-11-29T06:58:36.174Z,48.30
2022-11-29T07:01:32.272Z,53.80
2022-11-29T07:04:00.519Z,53.90
2022-11-29T07:06:30.087Z,53.90
2022-11-29T07:09:13.431Z,60.60
2022-11-29T07:11:43.040Z,60.40
2022-11-29T07:14:12.215Z,59.50
2022-11-29T07:17:11.875Z,57.10
2022-11-29T07:19:40.161Z,60.20
2022-11-29T07:22:22.715Z,61.40
2022-11-29T07:25:15.642Z,60.20
2022-11-29T07:27:50.089Z,60.00
2022-11-29T07:30:29.741Z,42.60
2022-11-29T07:33:03.868Z,60.30
2022-11-29T07:35:49.248Z,59.30
2022-11-29T07:38:47.415Z,51.10
2022-11-29T07:41:29.535Z,60.10
2022-11-29T07:44:00.834Z,56.60
2022-11-29T07:46:29.265Z,61.20
2022-11-29T07:48:57.693Z,62.10
2022-11-29T07:51:26.003Z,55.20
2022-11-29T07:53:54.330Z,63.20
2022-11-29T07:56:22.708Z,62.90
2022-11-29T07:58:51.097Z,65.50
2022-11-29T08:01:19.490Z,63.10
2022-11-29T08:03:47.762Z,65.60
2022-11-29T08:06:16.033Z,64.30
2022-11-29T08:08:44.629Z,67.80
2022-11-29T08:11:13.087Z,67.40
2022-11-29T08:13:41.351Z,54.40
2022-11-29T08:16:15.226Z,54.10
2022-11-29T08:18:43.993Z,54.00
2022-11-29T08:21:18.146Z,63.70
2022-11-29T08:23:48.100Z,70.00
2022-11-29T08:26:18.087Z,70.70
2022-11-29T08:28:52.273Z,72.30
2022-11-29T08:31:21.786Z,94.00
2022-11-29T08:33:50.117Z,80.60
2022-11-29T08:36:20.326Z,65.80
2022-11-29T08:38:48.688Z,68.80
2022-11-29T08:41:18.477Z,70.50
2022-11-29T08:43:46.715Z,57.20
2022-11-29T08:46:18.613Z,60.80
2022-11-29T08:48:48.547Z,61.50
2022-11-29T08:51:16.980Z,65.20
2022-11-29T08:53:46.827Z,69.70
2022-11-29T08:57:10.307Z,63.10
2022-11-29T08:59:09.720Z,60.00
2022-11-29T09:01:37.953Z,50.00
2022-11-29T09:04:08.076Z,52.70
2022-11-29T09:06:41.703Z,52.30
2022-11-29T09:09:10.444Z,48.70
2022-11-29T09:11:38.727Z,49.40
2022-11-29T09:14:08.772Z,48.50
2022-11-29T09:16:38.850Z,50.70
2022-11-29T09:19:08.121Z,50.00
2022-11-29T09:21:37.096Z,53.20
2022-11-29T09:24:06.802Z,49.80
2022-11-29T09:26:38.214Z,51.10
2022-11-29T09:29:07.501Z,50.10
2022-11-29T09:31:35.840Z,51.20
2022-11-29T09:34:04.353Z,48.40
2022-11-29T09:36:32.895Z,52.30
2022-11-29T09:39:03.098Z,54.50
2022-11-29T09:42:01.259Z,52.80
2022-11-29T09:45:04.365Z,55.50
2022-11-29T09:48:19.585Z,53.20
2022-11-29T09:50:54.563Z,50.10
2022-11-29T09:53:22.899Z,48.70
2022-11-29T09:56:13.108Z,46.90
2022-11-29T09:59:04.972Z,46.50
2022-11-29T10:01:40.019Z,46.80
2022-11-29T10:04:19.404Z,44.50
2022-11-29T10:07:07.589Z,46.50
2022-11-29T10:10:13.725Z,46.10
2022-11-29T10:13:02.217Z,39.30
2022-11-29T10:15:38.664Z,39.20
2022-11-29T10:18:38.666Z,46.30
2022-11-29T10:21:16.453Z,40.00
2022-11-29T10:23:59.433Z,43.50
2022-11-29T10:26:33.592Z,42.30
2022-11-29T10:29:04.374Z,43.00
2022-11-29T10:31:43.021Z,39.50
2022-11-29T10:34:18.138Z,39.70
2022-11-29T10:37:02.766Z,39.00
2022-11-29T10:39:43.991Z,39.20
2022-11-29T10:42:40.508Z,42.40
2022-11-29T10:45:19.541Z,36.80
2022-11-29T10:47:49.521Z,35.00
2022-11-29T10:50:21.901Z,34.50
2022-11-29T10:52:50.203Z,37.40
2022-11-29T10:55:18.606Z,35.70
2022-11-29T10:58:16.682Z,40.40
2022-11-29T11:00:58.270Z,38.50
2022-11-29T11:03:32.832Z,37.00
2022-11-29T11:06:22.976Z,35.60
2022-11-29T11:09:13.344Z,34.80
2022-11-29T11:11:50.165Z,33.70
2022-11-29T11:14:23.812Z,36.50
2022-11-29T11:16:54.152Z,36.00
2022-11-29T11:19:34.476Z,35.70
2022-11-29T11:22:04.816Z,39.60
2022-11-29T11:24:39.357Z,39.40
2022-11-29T11:27:08.191Z,42.40
2022-11-29T11:29:43.247Z,41.30
2022-11-29T11:32:20.231Z,42.30
2022-11-29T11:35:00.035Z,55.00
2022-11-29T11:37:33.679Z,39.30
2022-11-29T11:40:29.385Z,37.60
2022-11-29T11:45:35.087Z,38.80
2022-11-29T11:48:13.084Z,37.60
2022-11-29T11:50:45.484Z,38.30
2022-11-29T11:53:36.853Z,38.20
2022-11-29T11:56:09.703Z,39.00
2022-11-29T11:58:45.308Z,40.10
2022-11-29T12:01:14.901Z,38.30
2022-11-29T12:04:12.790Z,42.90
2022-11-29T12:06:47.519Z,47.60
2022-11-29T12:09:25.038Z,45.00
2022-11-29T12:12:15.886Z,39.70
2022-11-29T12:15:40.757Z,41.10
2022-11-29T12:18:20.888Z,45.70
2022-11-29T12:21:27.689Z,41.70
2022-11-29T12:23:55.864Z,42.80
2022-11-29T12:26:56.312Z,45.70
2022-11-29T12:29:23.374Z,46.50
2022-11-29T12:31:58.419Z,48.00
2022-11-29T12:34:49.299Z,46.20
2022-11-29T12:37:43.986Z,46.60
2022-11-29T12:40:37.377Z,45.80
2022-11-29T12:43:34.095Z,46.20
2022-11-29T12:46:21.414Z,46.60
2022-11-29T12:48:55.875Z,59.40
2022-11-29T12:52:01.652Z,56.40
2022-11-29T12:55:17.728Z,53.20
2022-11-29T12:58:28.910Z,47.00
2022-11-29T13:01:31.628Z,43.90
2022-11-29T13:04:22.639Z,41.80
2022-11-29T13:06:53.595Z,42.60
2022-11-29T13:10:17.660Z,45.00
2022-11-29T13:13:19.124Z,38.60
2022-11-29T13:16:25.067Z,40.40
2022-11-29T13:19:19.899Z,40.70
2022-11-29T13:22:08.334Z,42.80
2022-11-29T13:24:42.916Z,43.30
2022-11-29T13:27:19.888Z,41.40
2022-11-29T13:29:49.037Z,41.60
2022-11-29T13:32:45.564Z,40.80
2022-11-29T13:35:44.759Z,42.50
2022-11-29T13:38:30.647Z,42.60
2022-11-29T13:41:00.024Z,45.80
2022-11-29T13:43:51.758Z,43.80
2022-11-29T13:46:44.215Z,42.30
2022-11-29T13:49:43.048Z,45.50
2022-11-29T13:52:28.621Z,44.70
2022-11-29T13:58:16.756Z,46.90
2022-11-29T14:00:46.123Z,35.70
2022-11-29T14:03:38.801Z,47.60
2022-11-29T14:06:21.940Z,46.80
2022-11-29T14:11:53.394Z,47.30
2022-11-29T14:14:31.937Z,46.30
2022-11-29T14:17:18.695Z,48.20
2022-11-29T14:20:30.684Z,44.70
2022-11-29T14:23:05.102Z,47.00
2022-11-29T14:25:51.670Z,46.50
2022-11-29T14:28:25.150Z,47.10
2022-11-29T14:30:54.434Z,59.10
2022-11-29T14:33:27.081Z,50.40
2022-11-29T14:36:29.544Z,50.20
2022-11-29T14:39:16.447Z,51.20
2022-11-29T14:41:50.972Z,49.50
2022-11-29T14:44:24.807Z,59.30
2022-11-29T14:47:06.980Z,51.30
2022-11-29T14:49:45.165Z,62.00
2022-11-29T14:52:13.480Z,57.10
2022-11-29T14:54:56.579Z,52.30
2022-11-29T14:57:51.341Z,54.80
2022-11-29T15:00:36.581Z,52.20
2022-11-29T15:03:21.715Z,51.00
2022-11-29T15:06:09.954Z,51.30
2022-11-29T15:08:50.210Z,54.40
2022-11-29T15:11:32.158Z,50.80
2022-11-29T15:14:06.611Z,49.10
2022-11-29T15:16:46.846Z,62.10
2022-11-29T15:19:35.632Z,56.10
2022-11-29T15:22:11.225Z,53.60
2022-11-29T15:25:01.399Z,53.50
2022-11-29T15:27:29.902Z,63.40
2022-11-29T15:30:00.087Z,63.40
2022-11-29T15:32:32.896Z,55.90
2022-11-29T15:35:01.530Z,60.90
2022-11-29T15:37:32.588Z,58.60
2022-11-29T15:40:10.694Z,61.10
2022-11-29T15:42:47.404Z,61.10
2022-11-29T15:45:31.430Z,64.20
2022-11-29T15:48:23.262Z,65.10
2022-11-29T15:51:23.793Z,56.60
2022-11-29T15:54:13.047Z,57.40
2022-11-29T15:56:48.012Z,63.10
2022-11-29T15:59:40.245Z,63.20
2022-11-29T16:02:31.315Z,66.10
2022-11-29T16:05:18.068Z,60.90
2022-11-29T16:07:49.801Z,61.60
2022-11-29T16:10:21.791Z,57.50
2022-11-29T16:12:56.598Z,55.60
2022-11-29T16:15:39.426Z,56.80
2022-11-29T16:18:23.636Z,57.80
2022-11-29T16:21:04.648Z,55.60
2022-11-29T16:23:42.509Z,58.10
2022-11-29T16:26:16.254Z,58.90
2022-11-29T16:31:37.633Z,51.30
2022-11-29T16:34:18.266Z,54.80
2022-11-29T16:36:46.636Z,55.40
2022-11-29T16:39:24.433Z,54.00
2022-11-29T16:42:15.963Z,48.20
2022-11-29T16:44:50.520Z,48.60
2022-11-29T16:47:22.416Z,52.30
2022-11-29T16:50:03.019Z,52.60
2022-11-29T16:52:34.140Z,52.50
2022-11-29T16:55:02.426Z,54.10
2022-11-29T16:57:35.722Z,57.80
2022-11-29T17:00:24.688Z,61.60
2022-11-29T17:02:53.015Z,60.90
2022-11-29T17:05:21.431Z,63.70
2022-11-29T17:07:50.915Z,59.40
2022-11-29T17:10:23.393Z,64.20
2022-11-29T17:12:52.007Z,62.50
2022-11-29T17:15:20.212Z,66.80
2022-11-29T17:17:49.316Z,63.90
2022-11-29T17:20:17.749Z,72.40
2022-11-29T17:22:46.080Z,75.50
2022-11-29T17:25:14.394Z,74.90
2022-11-29T17:27:42.764Z,71.50
2022-11-29T17:30:11.636Z,75.50
2022-11-29T17:32:40.078Z,77.60
2022-11-29T17:35:08.675Z,80.00
2022-11-29T17:37:36.998Z,79.30
2022-11-29T17:40:05.835Z,74.70
2022-11-29T17:42:36.564Z,73.70
2022-11-29T17:45:05.021Z,73.00
2022-11-29T17:47:33.711Z,71.60
2022-11-29T17:50:02.012Z,69.80
2022-11-29T17:52:30.313Z,67.90
2022-11-29T17:54:58.550Z,68.40
2022-11-29T17:57:26.815Z,73.60
2022-11-29T17:59:55.163Z,70.30
2022-11-29T18:02:23.442Z,69.70
2022-11-29T18:04:51.930Z,73.80
2022-11-29T18:07:20.449Z,74.20
2022-11-29T18:09:51.613Z,74.00
2022-11-29T18:12:20.188Z,67.40
2022-11-29T18:14:51.035Z,70.20
2022-11-29T18:17:19.317Z,75.10
2022-11-29T18:19:47.837Z,73.80
2022-11-29T18:22:16.556Z,75.10
2022-11-29T18:24:44.924Z,80.30
2022-11-29T18:27:13.302Z,80.00
2022-11-29T18:29:41.620Z,83.80
2022-11-29T18:32:10.054Z,78.60
2022-11-29T18:34:38.372Z,80.80
2022-11-29T18:37:11.014Z,76.60
2022-11-29T18:39:42.590Z,77.10
2022-11-29T18:42:10.910Z,77.30
2022-11-29T18:44:39.165Z,71.20
2022-11-29T18:47:07.497Z,75.50
2022-11-29T18:49:35.790Z,72.90
2022-11-29T18:52:04.311Z,66.90
2022-11-29T18:54:32.994Z,61.30
2022-11-29T18:57:01.303Z,64.50
2022-11-29T18:59:29.673Z,58.70
2022-11-29T19:01:58.015Z,56.40
2022-11-29T19:04:26.355Z,63.30
2022-11-29T19:06:54.624Z,68.70
2022-11-29T19:09:24.454Z,56.80
2022-11-29T19:11:52.779Z,54.60
2022-11-29T19:14:21.215Z,57.50
2022-11-29T19:16:50.398Z,64.30
2022-11-29T19:19:21.103Z,82.20
2022-11-29T19:21:49.382Z,65.30
2022-11-29T19:24:18.607Z,61.90
2022-11-29T19:26:49.841Z,60.20
2022-11-29T19:29:18.729Z,54.40
2022-11-29T19:31:50.595Z,56.40
2022-11-29T19:34:19.009Z,68.80
2022-11-29T19:36:47.483Z,85.70
2022-11-29T19:39:17.339Z,63.80
2022-11-29T19:41:47.894Z,49.60
2022-11-29T19:44:16.207Z,55.20
2022-11-29T19:46:48.842Z,61.70
2022-11-29T19:49:17.861Z,53.70
2022-11-29T19:51:46.286Z,56.60
2022-11-29T19:54:15.029Z,68.50
2022-11-29T19:56:43.809Z,56.70
2022-11-29T19:59:12.173Z,60.80
2022-11-29T20:01:42.323Z,52.50
2022-11-29T20:04:13.703Z,57.40
2022-11-29T20:06:44.387Z,61.30
2022-11-29T20:09:14.069Z,56.20
2022-11-29T20:11:42.762Z,66.10
2022-11-29T20:14:13.244Z,54.50
2022-11-29T20:16:42.487Z,50.60
2022-11-29T20:19:14.221Z,84.50
2022-11-29T20:21:49.047Z,67.10
2022-11-29T20:24:17.998Z,45.40
2022-11-29T20:26:48.722Z,55.90
2022-11-29T20:29:19.042Z,53.90
2022-11-29T20:31:50.513Z,72.90
2022-11-29T20:34:20.609Z,50.60
2022-11-29T20:36:55.003Z,53.20
2022-11-29T20:39:44.906Z,52.60
2022-11-29T20:42:28.930Z,53.00
2022-11-29T20:45:00.647Z,52.00
2022-11-29T20:47:47.343Z,54.40
2022-11-29T20:50:24.509Z,61.40
2022-11-29T20:53:18.258Z,53.90
2022-11-29T20:55:48.869Z,48.60
2022-11-29T20:58:19.627Z,49.60
2022-11-29T21:00:48.108Z,48.80
2022-11-29T21:03:18.036Z,55.60
2022-11-29T21:05:47.184Z,53.40
2022-11-29T21:08:17.557Z,67.10
2022-11-29T21:10:45.960Z,55.00
2022-11-29T21:13:15.714Z,49.40
2022-11-29T21:15:44.555Z,54.80
2022-11-29T21:18:18.680Z,44.70
2022-11-29T21:21:03.051Z,52.30
2022-11-29T21:23:46.682Z,48.70
2022-11-29T21:26:23.364Z,48.10
2022-11-29T21:29:23.936Z,44.90
2022-11-29T21:31:54.530Z,43.30
2022-11-29T21:34:23.297Z,45.50
2022-11-29T21:36:58.614Z,59.80
2022-11-29T21:39:33.748Z,53.50
2022-11-29T21:44:30.518Z,52.50
2022-11-29T21:46:58.917Z,50.90
2022-11-29T21:49:27.164Z,47.70
2022-11-29T21:51:57.803Z,42.80
2022-11-29T21:54:26.279Z,44.50
2022-11-29T21:56:55.468Z,42.00
2022-11-29T21:59:28.298Z,47.10
2022-11-29T22:01:56.670Z,47.30
2022-11-29T22:04:25.524Z,43.00
2022-11-29T22:06:54.102Z,43.60
2022-11-29T22:09:22.356Z,40.60
2022-11-29T22:11:50.785Z,43.30
2022-11-29T22:14:19.260Z,44.20
2022-11-29T22:16:53.773Z,43.20
2022-11-29T22:19:25.364Z,52.30
2022-11-29T22:22:00.303Z,54.20
2022-11-29T22:24:31.986Z,50.20
2022-11-29T22:27:01.922Z,51.40
2022-11-29T22:29:30.421Z,46.50
2022-11-29T22:31:59.627Z,46.00
2022-11-29T22:34:28.158Z,46.90
2022-11-29T22:36:56.599Z,38.60
2022-11-29T22:39:24.963Z,41.20
2022-11-29T22:41:54.901Z,33.20
2022-11-29T22:44:24.377Z,36.30
2022-11-29T22:46:52.938Z,35.20
2022-11-29T22:49:21.274Z,35.00
2022-11-29T22:51:49.641Z,33.70
2022-11-29T22:54:18.151Z,34.60
2022-11-29T22:56:47.389Z,34.40
2022-11-29T22:59:15.780Z,35.50
2022-11-29T23:01:44.225Z,35.90
2022-11-29T23:04:13.332Z,34.90
2022-11-29T23:06:46.296Z,31.30
2022-11-29T23:09:21.738Z,32.80
2022-11-29T23:11:53.092Z,33.80
2022-11-29T23:14:22.315Z,33.90
2022-11-29T23:16:51.493Z,30.40
2022-11-29T23:19:19.937Z,32.00
2022-11-29T23:21:48.246Z,31.20
2022-11-29T23:24:16.745Z,32.70
2022-11-29T23:26:47.912Z,30.50
2022-11-29T23:29:19.432Z,35.30
2022-11-29T23:31:50.266Z,34.50
2022-11-29T23:34:19.072Z,33.60
2022-11-29T23:36:52.697Z,32.70
2022-11-29T23:39:21.771Z,33.00
2022-11-29T23:41:50.064Z,34.60
2022-11-29T23:44:18.332Z,36.60
2022-11-29T23:46:46.688Z,34.20
2022-11-29T23:49:14.983Z,35.00
2022-11-29T23:51:43.217Z,34.60
2022-11-29T23:54:11.489Z,33.10
2022-11-29T23:56:39.703Z,37.00
2022-11-29T23:59:08.041Z,34.40
